Time;durP1;ratioP1;P1;durP2;ratioP2;P2;SDS_P1;SDS_P2;PMS_P1;PMS_P2;Temp;Humidity;BMP_temperature;BMP_pressure;BME280_temperature;BME280_humidity;BME280_pressure;Samples;Min_cycle;Max_cycle;Signal;HPM_P1;HPM_P2
2023/10/12 00:00:24;;;;;;;14.05;7.00;;;21.20;46.40;;;;;;349322;28;1557;-58
2023/10/12 00:00:33;;;;;;;16.02;7.57;;;21.20;46.40;;;;;;349352;28;1629;-59
2023/10/12 00:00:47;;;;;;;11.98;7.30;;;21.10;46.40;;;;;;349624;28;1545;-59
2023/10/12 00:01:01;;;;;;;11.38;7.47;;;21.20;46.30;;;;;;349714;28;1039;-60
2023/10/12 00:01:14;;;;;;;10.73;7.38;;;21.20;46.30;;;;;;349610;28;1059;-60
2023/10/12 00:01:25;;;;;;;11.15;7.15;;;21.20;46.30;;;;;;349585;28;1957;-59
2023/10/12 00:01:37;;;;;;;10.92;6.92;;;21.20;46.20;;;;;;349540;28;1498;-60
2023/10/12 00:02:00;;;;;;;10.75;6.80;;;21.20;46.30;;;;;;349718;28;1047;-59
2023/10/12 00:02:21;;;;;;;12.63;7.20;;;21.20;46.20;;;;;;349593;28;971;-60
2023/10/12 00:02:32;;;;;;;12.02;7.00;;;21.20;46.20;;;;;;349662;28;1377;-60
2023/10/12 00:02:43;;;;;;;9.55;6.53;;;21.20;46.30;;;;;;349640;28;886;-59
2023/10/12 00:02:57;;;;;;;8.77;6.50;;;21.20;46.30;;;;;;349660;28;1244;-60
2023/10/12 00:03:12;;;;;;;10.82;6.72;;;21.20;46.30;;;;;;349599;28;993;-59
2023/10/12 00:03:25;;;;;;;11.20;6.88;;;21.20;46.20;;;;;;349699;28;976;-59
2023/10/12 00:03:35;;;;;;;11.55;7.00;;;21.20;46.20;;;;;;349586;28;1576;-60
2023/10/12 00:03:47;;;;;;;9.88;6.50;;;21.20;46.20;;;;;;349737;28;991;-59
2023/10/12 00:04:05;;;;;;;10.05;6.50;;;21.20;46.20;;;;;;349582;28;1069;-59
2023/10/12 00:04:16;;;;;;;12.60;6.80;;;21.20;46.10;;;;;;349683;28;968;-60
2023/10/12 00:04:29;;;;;;;12.23;6.70;;;21.20;46.10;;;;;;349739;28;1007;-59
2023/10/12 00:04:53;;;;;;;10.55;6.65;;;21.20;46.20;;;;;;349583;28;1122;-60
2023/10/12 00:05:06;;;;;;;11.23;7.05;;;21.20;46.20;;;;;;349646;28;1083;-60
2023/10/12 00:05:17;;;;;;;11.10;7.10;;;21.10;46.10;;;;;;349651;28;1097;-59
2023/10/12 00:05:29;;;;;;;12.45;7.20;;;21.20;46.10;;;;;;349648;28;1497;-60
2023/10/12 00:05:45;;;;;;;11.65;6.95;;;21.20;46.10;;;;;;349567;28;1626;-59
2023/10/12 00:05:56;;;;;;;10.82;6.60;;;21.10;46.10;;;;;;349689;28;880;-60
2023/10/12 00:06:08;;;;;;;11.52;6.60;;;21.10;46.20;;;;;;349666;28;998;-59
2023/10/12 00:06:18;;;;;;;12.02;6.68;;;21.20;46.10;;;;;;349568;28;1000;-60
2023/10/12 00:06:31;;;;;;;12.13;7.03;;;21.20;46.10;;;;;;349458;28;1820;-60
2023/10/12 00:06:43;;;;;;;11.93;7.22;;;21.20;46.10;;;;;;349589;28;932;-60
2023/10/12 00:06:55;;;;;;;10.95;6.95;;;21.20;46.10;;;;;;349532;28;995;-60
2023/10/12 00:07:15;;;;;;;9.73;6.57;;;21.20;46.20;;;;;;349535;28;1181;-59
2023/10/12 00:07:36;;;;;;;11.75;6.78;;;21.10;46.10;;;;;;349550;28;825;-60
2023/10/12 00:07:49;;;;;;;10.05;7.00;;;21.10;46.10;;;;;;349542;28;1039;-60
2023/10/12 00:08:10;;;;;;;10.40;6.85;;;21.10;46.10;;;;;;349565;28;1031;-59
2023/10/12 00:08:30;;;;;;;11.80;6.63;;;21.10;46.10;;;;;;349703;28;920;-60
2023/10/12 00:08:41;;;;;;;11.65;6.72;;;21.20;46.10;;;;;;349713;28;951;-61
2023/10/12 00:08:52;;;;;;;11.48;6.72;;;21.10;46.20;;;;;;349677;28;1031;-59
2023/10/12 00:09:18;;;;;;;11.10;6.70;;;21.10;46.10;;;;;;349633;28;1478;-58
2023/10/12 00:09:29;;;;;;;10.60;6.75;;;21.20;46.10;;;;;;349602;28;1170;-60
2023/10/12 00:09:48;;;;;;;11.85;6.85;;;21.10;46.20;;;;;;349676;28;964;-59
2023/10/12 00:10:19;;;;;;;11.13;6.90;;;21.20;46.20;;;;;;349645;28;1276;-60
2023/10/12 00:10:40;;;;;;;14.98;7.25;;;21.10;46.20;;;;;;349666;28;828;-59
2023/10/12 00:10:54;;;;;;;13.25;7.05;;;21.10;46.20;;;;;;349624;28;1298;-59
2023/10/12 00:11:07;;;;;;;13.23;7.20;;;21.10;46.10;;;;;;349690;28;872;-59
2023/10/12 00:11:20;;;;;;;15.60;7.20;;;21.10;46.20;;;;;;349732;28;976;-59
2023/10/12 00:11:37;;;;;;;16.25;7.00;;;21.10;46.20;;;;;;349612;28;910;-60
2023/10/12 00:12:07;;;;;;;12.45;7.18;;;21.10;46.20;;;;;;349720;28;1086;-60
2023/10/12 00:12:24;;;;;;;12.55;7.25;;;21.10;46.20;;;;;;349588;28;1128;-59
2023/10/12 00:12:35;;;;;;;11.18;7.10;;;21.10;46.20;;;;;;349645;28;950;-60
2023/10/12 00:12:47;;;;;;;11.38;6.90;;;21.10;46.20;;;;;;349677;28;931;-59
2023/10/12 00:12:59;;;;;;;10.23;7.03;;;21.10;46.20;;;;;;349709;28;873;-59
2023/10/12 00:13:11;;;;;;;11.73;7.43;;;21.10;46.20;;;;;;349665;28;1136;-60
2023/10/12 00:13:28;;;;;;;13.88;7.14;;;21.10;46.20;;;;;;349635;28;1150;-60
2023/10/12 00:13:43;;;;;;;15.20;7.40;;;21.10;46.20;;;;;;349637;28;1995;-59
2023/10/12 00:13:54;;;;;;;12.70;7.68;;;21.10;46.20;;;;;;349688;28;1031;-59
2023/10/12 00:14:05;;;;;;;12.45;7.28;;;21.10;46.30;;;;;;349584;28;1078;-59
2023/10/12 00:14:15;;;;;;;12.30;7.45;;;21.10;46.20;;;;;;349657;28;1007;-60
2023/10/12 00:14:29;;;;;;;11.73;7.47;;;21.10;46.20;;;;;;349712;28;825;-59
2023/10/12 00:14:41;;;;;;;10.52;7.28;;;21.10;46.30;;;;;;349720;28;871;-61
2023/10/12 00:14:55;;;;;;;10.13;7.13;;;21.10;46.20;;;;;;349577;28;1133;-59
2023/10/12 00:15:21;;;;;;;11.20;7.20;;;21.10;46.30;;;;;;349721;28;865;-59
2023/10/12 00:15:38;;;;;;;14.70;7.70;;;21.10;46.30;;;;;;349569;28;1111;-60
2023/10/12 00:15:49;;;;;;;15.77;8.40;;;21.10;46.20;;;;;;349672;28;1032;-59
2023/10/12 00:15:59;;;;;;;14.63;8.30;;;21.10;46.20;;;;;;349641;28;1110;-59
2023/10/12 00:16:10;;;;;;;13.73;7.82;;;21.10;46.20;;;;;;349687;28;1028;-60
2023/10/12 00:16:21;;;;;;;12.18;8.55;;;21.10;46.10;;;;;;349657;28;1091;-60
2023/10/12 00:16:32;;;;;;;15.27;11.43;;;21.10;46.10;;;;;;349595;28;1731;-60
2023/10/12 00:16:43;;;;;;;16.67;12.83;;;21.10;46.20;;;;;;349650;28;1012;-59
2023/10/12 00:16:53;;;;;;;16.65;12.65;;;21.20;46.10;;;;;;349589;28;1514;-59
2023/10/12 00:17:05;;;;;;;16.17;10.38;;;21.10;46.10;;;;;;349625;28;1015;-58
2023/10/12 00:17:17;;;;;;;14.00;8.60;;;21.10;46.10;;;;;;349591;28;1124;-59
2023/10/12 00:17:28;;;;;;;12.20;7.53;;;21.10;46.10;;;;;;349666;28;979;-59
2023/10/12 00:17:38;;;;;;;11.18;7.10;;;21.20;46.10;;;;;;349711;28;1075;-58
2023/10/12 00:17:51;;;;;;;11.87;7.20;;;21.10;46.10;;;;;;349657;28;1807;-58
2023/10/12 00:18:08;;;;;;;12.02;7.30;;;21.10;46.10;;;;;;349561;28;1114;-60
2023/10/12 00:18:19;;;;;;;12.55;7.72;;;21.10;46.00;;;;;;349672;28;987;-60
2023/10/12 00:18:31;;;;;;;13.68;8.30;;;21.10;46.00;;;;;;349654;28;1482;-60
2023/10/12 00:18:45;;;;;;;14.27;8.13;;;21.10;46.10;;;;;;349611;28;1078;-59
2023/10/12 00:18:56;;;;;;;13.43;7.80;;;21.10;46.10;;;;;;349594;28;916;-59
2023/10/12 00:19:11;;;;;;;11.18;7.35;;;21.10;46.10;;;;;;349597;28;1126;-59
2023/10/12 00:19:23;;;;;;;10.93;7.00;;;21.10;46.00;;;;;;349645;28;868;-62
2023/10/12 00:19:34;;;;;;;10.95;6.90;;;21.10;46.00;;;;;;349665;28;1035;-60
2023/10/12 00:19:45;;;;;;;12.00;7.28;;;21.10;46.00;;;;;;349570;28;1035;-58
2023/10/12 00:19:55;;;;;;;10.82;7.50;;;21.10;46.10;;;;;;349631;28;1154;-59
2023/10/12 00:20:08;;;;;;;11.40;7.80;;;21.10;46.10;;;;;;349666;28;884;-60
2023/10/12 00:20:35;;;;;;;13.88;9.23;;;21.00;46.10;;;;;;349702;28;974;-59
2023/10/12 00:20:50;;;;;;;26.77;20.25;;;21.00;46.10;;;;;;349567;28;967;-60
2023/10/12 00:21:14;;;;;;;20.45;14.13;;;21.10;46.10;;;;;;349684;28;960;-59
2023/10/12 00:21:28;;;;;;;18.04;13.00;;;21.00;46.10;;;;;;349547;28;1911;-60
2023/10/12 00:21:43;;;;;;;16.20;11.35;;;21.00;46.10;;;;;;349700;28;995;-60
2023/10/12 00:21:59;;;;;;;14.77;9.23;;;21.00;46.10;;;;;;349551;28;1070;-59
2023/10/12 00:22:11;;;;;;;13.60;8.07;;;21.10;46.10;;;;;;349691;28;1040;-60
2023/10/12 00:22:23;;;;;;;12.73;7.85;;;21.00;46.10;;;;;;349676;28;1200;-60
2023/10/12 00:22:34;;;;;;;11.98;7.63;;;21.00;46.10;;;;;;349652;28;984;-60
2023/10/12 00:22:46;;;;;;;11.50;7.57;;;21.00;46.20;;;;;;349581;28;1043;-59
2023/10/12 00:23:09;;;;;;;12.10;7.82;;;21.00;46.20;;;;;;349672;28;913;-60
2023/10/12 00:23:20;;;;;;;11.43;7.18;;;21.00;46.20;;;;;;349595;28;1537;-60
2023/10/12 00:23:33;;;;;;;10.50;6.97;;;21.00;46.20;;;;;;349622;28;971;-61
2023/10/12 00:23:44;;;;;;;10.48;7.40;;;21.00;46.20;;;;;;349652;28;959;-60
2023/10/12 00:23:56;;;;;;;12.20;7.60;;;21.00;46.20;;;;;;349612;28;1254;-60
2023/10/12 00:24:07;;;;;;;13.27;7.63;;;21.00;46.20;;;;;;349644;28;1114;-61
2023/10/12 00:24:18;;;;;;;12.75;7.25;;;21.00;46.20;;;;;;349546;28;1376;-59
2023/10/12 00:24:30;;;;;;;10.80;7.13;;;21.00;46.20;;;;;;349652;28;984;-59
2023/10/12 00:24:42;;;;;;;11.25;7.25;;;20.90;46.20;;;;;;349571;28;1193;-59
2023/10/12 00:24:52;;;;;;;9.98;7.28;;;21.00;46.20;;;;;;349600;28;995;-59
2023/10/12 00:25:04;;;;;;;10.50;7.40;;;20.90;46.30;;;;;;349669;28;1010;-60
2023/10/12 00:25:16;;;;;;;11.20;7.38;;;21.00;46.30;;;;;;349582;28;1078;-60
2023/10/12 00:25:27;;;;;;;11.48;7.10;;;20.90;46.30;;;;;;349716;28;1137;-60
2023/10/12 00:25:45;;;;;;;11.48;7.15;;;20.90;46.30;;;;;;349674;28;959;-60
2023/10/12 00:25:58;;;;;;;9.18;7.00;;;21.00;46.30;;;;;;349625;28;1122;-59
2023/10/12 00:26:08;;;;;;;10.85;6.80;;;20.90;46.30;;;;;;349583;28;1098;-60
2023/10/12 00:26:19;;;;;;;12.07;6.97;;;20.90;46.30;;;;;;349669;28;841;-60
2023/10/12 00:26:31;;;;;;;12.40;7.15;;;20.90;46.40;;;;;;349670;28;856;-59
2023/10/12 00:26:43;;;;;;;11.68;6.93;;;20.90;46.40;;;;;;349647;28;1110;-59
2023/10/12 00:26:54;;;;;;;13.18;7.20;;;20.90;46.40;;;;;;349669;28;937;-59
2023/10/12 00:27:15;;;;;;;13.63;7.35;;;20.90;46.30;;;;;;349570;28;987;-59
2023/10/12 00:27:26;;;;;;;11.55;7.50;;;20.90;46.40;;;;;;349553;28;1215;-60
2023/10/12 00:27:41;;;;;;;11.85;7.35;;;20.80;46.40;;;;;;349682;28;992;-59
2023/10/12 00:27:52;;;;;;;12.15;7.30;;;20.80;46.40;;;;;;349661;28;1585;-59
2023/10/12 00:28:03;;;;;;;12.40;7.43;;;20.90;46.50;;;;;;349624;28;947;-60
2023/10/12 00:28:17;;;;;;;11.90;7.53;;;20.80;46.50;;;;;;349601;28;1102;-60
2023/10/12 00:28:29;;;;;;;10.07;7.57;;;20.80;46.50;;;;;;349618;28;1476;-59
2023/10/12 00:28:40;;;;;;;10.13;7.22;;;20.90;46.50;;;;;;349640;28;979;-59
2023/10/12 00:28:55;;;;;;;12.40;7.13;;;20.90;46.50;;;;;;349636;28;880;-60
2023/10/12 00:29:07;;;;;;;12.82;7.30;;;20.70;46.50;;;;;;349651;28;991;-60
2023/10/12 00:29:18;;;;;;;11.13;7.30;;;20.80;46.50;;;;;;349661;28;944;-60
2023/10/12 00:29:32;;;;;;;11.38;7.47;;;20.80;46.60;;;;;;349652;28;1197;-59
2023/10/12 00:29:44;;;;;;;13.63;7.63;;;20.80;46.60;;;;;;349556;28;1173;-59
2023/10/12 00:29:55;;;;;;;14.85;7.78;;;20.80;46.60;;;;;;349679;28;979;-59
2023/10/12 00:30:06;;;;;;;13.25;7.72;;;20.80;46.70;;;;;;349653;28;1833;-60
2023/10/12 00:30:17;;;;;;;11.68;7.57;;;20.80;46.70;;;;;;349646;28;1093;-60
2023/10/12 00:30:31;;;;;;;12.07;7.30;;;20.80;46.70;;;;;;349555;28;1030;-60
2023/10/12 00:30:41;;;;;;;12.85;7.03;;;20.70;46.80;;;;;;349564;28;1190;-61
2023/10/12 00:30:54;;;;;;;12.67;7.30;;;20.70;46.80;;;;;;349564;28;1114;-60
2023/10/12 00:31:12;;;;;;;10.95;7.32;;;20.70;46.70;;;;;;349641;28;1058;-60
2023/10/12 00:31:22;;;;;;;11.55;7.35;;;20.70;46.80;;;;;;349636;28;971;-60
2023/10/12 00:31:35;;;;;;;13.73;7.37;;;20.70;46.80;;;;;;349641;28;1011;-60
2023/10/12 00:31:47;;;;;;;12.88;6.95;;;20.70;46.80;;;;;;349629;28;873;-59
2023/10/12 00:31:59;;;;;;;13.57;7.05;;;20.70;46.80;;;;;;349646;28;1050;-60
2023/10/12 00:32:10;;;;;;;12.80;7.15;;;20.70;46.80;;;;;;349508;28;1131;-58
2023/10/12 00:32:21;;;;;;;13.73;7.35;;;20.70;46.90;;;;;;349678;28;952;-59
2023/10/12 00:32:31;;;;;;;13.13;7.20;;;20.70;46.80;;;;;;349664;28;971;-60
2023/10/12 00:32:42;;;;;;;13.50;7.37;;;20.70;46.80;;;;;;349664;28;896;-60
2023/10/12 00:32:53;;;;;;;12.85;7.30;;;20.70;46.80;;;;;;349533;28;1778;-60
2023/10/12 00:33:08;;;;;;;13.23;7.20;;;20.70;46.90;;;;;;349649;28;1122;-62
2023/10/12 00:33:18;;;;;;;13.32;6.97;;;20.70;46.90;;;;;;349613;28;1069;-60
2023/10/12 00:33:29;;;;;;;14.43;7.00;;;20.70;46.90;;;;;;349485;28;1781;-59
2023/10/12 00:33:40;;;;;;;13.27;6.90;;;20.70;46.90;;;;;;349555;28;1059;-60
2023/10/12 00:33:50;;;;;;;12.48;6.90;;;20.70;46.90;;;;;;349659;28;1019;-60
2023/10/12 00:34:02;;;;;;;11.88;6.90;;;20.70;46.90;;;;;;349639;28;1138;-60
2023/10/12 00:34:14;;;;;;;10.90;7.20;;;20.70;46.90;;;;;;349619;28;1843;-60
2023/10/12 00:34:27;;;;;;;12.80;7.18;;;20.70;46.90;;;;;;349621;28;970;-61
2023/10/12 00:34:45;;;;;;;14.13;7.28;;;20.70;46.90;;;;;;349670;28;1011;-59
2023/10/12 00:34:58;;;;;;;11.90;7.20;;;20.70;46.90;;;;;;349668;28;842;-60
2023/10/12 00:35:17;;;;;;;10.80;6.88;;;20.70;46.90;;;;;;349563;28;1038;-60
2023/10/12 00:35:27;;;;;;;12.50;6.95;;;20.70;46.90;;;;;;349610;28;1007;-60
2023/10/12 00:35:39;;;;;;;13.65;7.13;;;20.70;46.90;;;;;;349628;28;995;-59
2023/10/12 00:36:03;;;;;;;12.25;7.00;;;20.70;46.80;;;;;;349596;28;1058;-60
2023/10/12 00:36:24;;;;;;;10.50;7.10;;;20.70;46.80;;;;;;349632;28;932;-59
2023/10/12 00:36:37;;;;;;;11.80;7.32;;;20.70;46.80;;;;;;349594;28;1039;-60
2023/10/12 00:36:52;;;;;;;11.26;7.42;;;20.70;46.80;;;;;;349579;28;1492;-60
2023/10/12 00:37:03;;;;;;;10.88;7.35;;;20.70;46.70;;;;;;349543;28;995;-59
2023/10/12 00:37:17;;;;;;;12.77;7.35;;;20.70;46.70;;;;;;349685;28;904;-60
2023/10/12 00:37:28;;;;;;;13.90;7.18;;;20.70;46.70;;;;;;349639;28;956;-59
2023/10/12 00:37:41;;;;;;;12.35;7.00;;;20.70;46.70;;;;;;349558;28;903;-60
2023/10/12 00:37:55;;;;;;;10.82;7.10;;;20.70;46.70;;;;;;349638;28;1038;-59
2023/10/12 00:38:17;;;;;;;10.68;7.43;;;20.70;46.70;;;;;;349683;28;844;-59
2023/10/12 00:38:30;;;;;;;11.88;7.40;;;20.70;46.80;;;;;;349666;28;1015;-59
2023/10/12 00:38:41;;;;;;;12.88;7.35;;;20.70;46.80;;;;;;349607;28;1007;-59
2023/10/12 00:38:56;;;;;;;13.27;6.95;;;20.70;46.80;;;;;;349589;28;1071;-59
2023/10/12 00:39:11;;;;;;;12.70;6.85;;;20.70;46.80;;;;;;349616;28;1126;-59
2023/10/12 00:39:27;;;;;;;10.90;7.15;;;20.70;46.80;;;;;;349637;28;1870;-59
2023/10/12 00:40:22;;;;;;;10.80;7.00;;;20.70;46.80;;;;;;349559;28;956;-59
2023/10/12 00:40:32;;;;;;;11.30;7.05;;;20.70;46.80;;;;;;349407;28;1638;-60
2023/10/12 00:40:57;;;;;;;11.95;7.40;;;20.70;46.80;;;;;;349575;28;1624;-59
2023/10/12 00:41:14;;;;;;;13.48;7.35;;;20.70;46.80;;;;;;349636;28;980;-60
2023/10/12 00:41:25;;;;;;;11.38;7.45;;;20.70;46.80;;;;;;349607;28;1100;-59
2023/10/12 00:41:37;;;;;;;10.70;7.47;;;20.70;46.70;;;;;;349659;28;1910;-60
2023/10/12 00:41:51;;;;;;;11.38;7.43;;;20.70;46.70;;;;;;349608;28;1023;-60
2023/10/12 00:42:02;;;;;;;12.18;7.43;;;20.70;46.70;;;;;;349581;28;2014;-60
2023/10/12 00:42:17;;;;;;;11.60;7.47;;;20.70;46.70;;;;;;349655;28;1189;-59
2023/10/12 00:42:34;;;;;;;12.25;7.60;;;20.70;46.70;;;;;;349683;28;1093;-58
2023/10/12 00:42:51;;;;;;;12.52;7.13;;;20.70;46.70;;;;;;349517;28;1044;-59
2023/10/12 00:43:01;;;;;;;10.70;6.78;;;20.70;46.80;;;;;;349583;28;1058;-59
2023/10/12 00:43:15;;;;;;;11.40;7.00;;;20.70;46.80;;;;;;349637;28;1483;-59
2023/10/12 00:43:32;;;;;;;11.95;7.20;;;20.70;46.70;;;;;;349665;28;999;-60
2023/10/12 00:44:18;;;;;;;13.02;7.10;;;20.70;46.70;;;;;;349613;28;1118;-59
2023/10/12 00:44:26;;;;;;;8.80;7.00;;;20.70;46.70;;;;;;349149;28;1432;-60
2023/10/12 00:44:40;;;;;;;10.88;7.30;;;20.70;46.80;;;;;;349682;28;860;-60
2023/10/12 00:44:54;;;;;;;11.07;7.40;;;20.70;46.80;;;;;;349630;28;1805;-59
2023/10/12 00:45:14;;;;;;;9.98;7.25;;;20.70;46.80;;;;;;349356;28;1197;-59
2023/10/12 00:45:32;;;;;;;10.15;7.07;;;20.70;46.80;;;;;;349436;28;1039;-59
2023/10/12 00:45:43;;;;;;;10.75;7.55;;;20.70;46.80;;;;;;349508;28;1011;-60
2023/10/12 00:45:54;;;;;;;10.90;8.00;;;20.70;46.80;;;;;;349616;28;945;-59
2023/10/12 00:46:33;;;;;;;11.23;7.90;;;20.70;46.90;;;;;;349650;28;1098;-59
2023/10/12 00:47:06;;;;;;;11.52;7.75;;;20.70;46.90;;;;;;349573;28;1093;-60
2023/10/12 00:47:30;;;;;;;10.77;7.30;;;20.60;46.90;;;;;;349552;28;1007;-60
2023/10/12 00:47:44;;;;;;;10.18;7.22;;;20.60;46.90;;;;;;349612;28;865;-59
2023/10/12 00:48:03;;;;;;;11.52;7.30;;;20.60;47.00;;;;;;349619;28;979;-60
2023/10/12 00:48:16;;;;;;;10.07;7.47;;;20.60;47.00;;;;;;349577;28;1163;-59
2023/10/12 00:48:30;;;;;;;9.95;7.32;;;20.60;47.00;;;;;;349636;28;1007;-60
2023/10/12 00:48:47;;;;;;;10.02;7.03;;;20.60;47.10;;;;;;349470;28;1035;-59
2023/10/12 00:49:16;;;;;;;9.82;6.82;;;20.60;47.00;;;;;;349639;28;915;-60
2023/10/12 00:49:29;;;;;;;12.15;7.22;;;20.60;47.10;;;;;;349506;28;1126;-58
2023/10/12 00:49:48;;;;;;;11.63;7.30;;;20.60;47.20;;;;;;349596;28;1032;-59
2023/10/12 00:50:06;;;;;;;11.65;7.35;;;20.50;47.20;;;;;;349610;28;1043;-60
2023/10/12 00:50:17;;;;;;;10.13;7.38;;;20.50;47.20;;;;;;349568;28;853;-59
2023/10/12 00:50:29;;;;;;;9.13;7.07;;;20.50;47.30;;;;;;349681;28;955;-59
2023/10/12 00:50:43;;;;;;;10.90;7.18;;;20.50;47.30;;;;;;349622;28;953;-59
2023/10/12 00:50:56;;;;;;;12.90;7.30;;;20.50;47.20;;;;;;349586;28;840;-59
2023/10/12 00:51:11;;;;;;;11.48;7.05;;;20.50;47.30;;;;;;349626;28;1126;-59
2023/10/12 00:51:23;;;;;;;11.75;7.40;;;20.40;47.30;;;;;;349619;28;1785;-59
2023/10/12 00:51:34;;;;;;;14.52;8.57;;;20.50;47.30;;;;;;349498;28;1217;-59
2023/10/12 00:51:54;;;;;;;15.63;9.77;;;20.50;47.30;;;;;;349583;28;1662;-60
2023/10/12 00:52:22;;;;;;;15.00;9.18;;;20.50;47.30;;;;;;349627;28;921;-60
2023/10/12 00:52:46;;;;;;;10.88;8.50;;;20.50;47.30;;;;;;349639;28;859;-60
2023/10/12 00:53:15;;;;;;;13.40;8.10;;;20.50;47.30;;;;;;349536;28;991;-60
2023/10/12 00:53:31;;;;;;;11.55;8.13;;;20.50;47.20;;;;;;349576;28;1489;-60
2023/10/12 00:53:55;;;;;;;9.93;7.75;;;20.50;47.30;;;;;;349545;28;2233;-59
2023/10/12 00:54:10;;;;;;;13.70;7.75;;;20.40;47.30;;;;;;349608;28;1007;-60
2023/10/12 00:54:28;;;;;;;12.55;7.60;;;20.40;47.30;;;;;;349604;28;1047;-60
2023/10/12 00:54:55;;;;;;;11.95;7.43;;;20.40;47.40;;;;;;349544;28;1067;-61
2023/10/12 00:55:21;;;;;;;11.55;7.32;;;20.50;47.30;;;;;;349562;28;895;-60
2023/10/12 00:55:35;;;;;;;11.63;7.38;;;20.40;47.30;;;;;;349600;28;1868;-60
2023/10/12 00:55:47;;;;;;;12.27;7.18;;;20.40;47.40;;;;;;349570;28;1134;-60
2023/10/12 00:56:01;;;;;;;11.75;7.25;;;20.40;47.30;;;;;;349582;28;919;-60
2023/10/12 00:56:11;;;;;;;10.77;7.28;;;20.50;47.40;;;;;;349532;28;1520;-60
2023/10/12 00:56:24;;;;;;;9.77;7.13;;;20.40;47.40;;;;;;349632;28;1018;-61
2023/10/12 00:56:36;;;;;;;10.88;7.50;;;20.40;47.40;;;;;;349631;28;1192;-60
2023/10/12 00:56:47;;;;;;;12.70;7.50;;;20.40;47.40;;;;;;349558;28;1907;-59
2023/10/12 00:57:02;;;;;;;13.55;7.53;;;20.40;47.40;;;;;;349688;28;912;-60
2023/10/12 00:57:13;;;;;;;14.32;7.18;;;20.40;47.40;;;;;;349574;28;1003;-59
2023/10/12 00:57:24;;;;;;;14.48;7.10;;;20.40;47.40;;;;;;349661;28;1091;-60
2023/10/12 00:57:35;;;;;;;13.88;7.63;;;20.40;47.50;;;;;;349536;28;1178;-60
2023/10/12 00:57:46;;;;;;;13.85;7.65;;;20.40;47.50;;;;;;349548;28;1111;-60
2023/10/12 00:57:57;;;;;;;14.55;8.10;;;20.40;47.50;;;;;;349599;28;861;-60
2023/10/12 00:58:10;;;;;;;14.60;7.80;;;20.40;47.50;;;;;;349674;28;877;-60
2023/10/12 00:58:22;;;;;;;12.40;7.30;;;20.40;47.50;;;;;;349669;28;972;-59
2023/10/12 00:58:36;;;;;;;13.80;7.47;;;20.40;47.60;;;;;;349608;28;1047;-60
2023/10/12 00:58:47;;;;;;;15.32;7.70;;;20.40;47.60;;;;;;349593;28;1146;-59
2023/10/12 00:58:58;;;;;;;13.27;7.67;;;20.40;47.60;;;;;;349640;28;896;-60
2023/10/12 00:59:12;;;;;;;10.27;7.80;;;20.30;47.60;;;;;;349635;28;976;-61
2023/10/12 00:59:23;;;;;;;10.52;7.72;;;20.30;47.60;;;;;;349520;28;1106;-61
2023/10/12 00:59:34;;;;;;;11.35;7.70;;;20.30;47.60;;;;;;349600;28;996;-59
2023/10/12 00:59:46;;;;;;;11.90;7.53;;;20.30;47.60;;;;;;349644;28;988;-60
2023/10/12 00:59:57;;;;;;;12.63;7.47;;;20.30;47.70;;;;;;349516;28;1582;-60
2023/10/12 01:00:15;;;;;;;12.38;7.55;;;20.30;47.70;;;;;;349660;28;1031;-59
2023/10/12 01:00:26;;;;;;;13.30;7.18;;;20.30;47.80;;;;;;349592;28;1375;-60
2023/10/12 01:01:00;;;;;;;13.18;7.20;;;20.30;47.80;;;;;;349542;28;952;-60
2023/10/12 01:01:11;;;;;;;13.68;6.70;;;20.30;47.80;;;;;;349486;28;1209;-60
2023/10/12 01:01:23;;;;;;;13.10;6.70;;;20.30;47.80;;;;;;349645;28;1991;-60
2023/10/12 01:01:35;;;;;;;12.10;6.80;;;20.30;47.70;;;;;;349560;28;1948;-60
2023/10/12 01:01:45;;;;;;;10.07;6.93;;;20.30;47.70;;;;;;349580;28;1035;-60
2023/10/12 01:01:56;;;;;;;10.27;7.20;;;20.30;47.70;;;;;;349603;28;1086;-59
2023/10/12 01:02:12;;;;;;;9.73;7.30;;;20.30;47.70;;;;;;349635;28;1769;-60
2023/10/12 01:02:29;;;;;;;9.57;7.22;;;20.30;47.80;;;;;;349584;28;1358;-60
2023/10/12 01:02:40;;;;;;;10.43;7.03;;;20.30;47.80;;;;;;349565;28;1130;-60
2023/10/12 01:03:07;;;;;;;11.02;7.05;;;20.30;47.70;;;;;;349577;28;1016;-60
2023/10/12 01:03:30;;;;;;;12.95;7.25;;;20.30;47.70;;;;;;349615;28;1079;-60
2023/10/12 01:03:45;;;;;;;13.00;7.05;;;20.30;47.70;;;;;;349562;28;2064;-60
2023/10/12 01:03:56;;;;;;;15.13;7.22;;;20.20;47.70;;;;;;349610;28;2000;-59
2023/10/12 01:04:15;;;;;;;13.57;7.45;;;20.30;47.70;;;;;;349540;28;1397;-59
2023/10/12 01:04:27;;;;;;;11.52;7.04;;;20.20;47.70;;;;;;349599;28;1047;-61
2023/10/12 01:04:41;;;;;;;10.95;6.72;;;20.30;47.70;;;;;;349523;28;1236;-60
2023/10/12 01:04:53;;;;;;;11.80;6.85;;;20.30;47.60;;;;;;349598;28;1082;-60
2023/10/12 01:05:04;;;;;;;10.70;6.97;;;20.30;47.60;;;;;;349692;28;923;-60
2023/10/12 01:05:17;;;;;;;9.50;7.00;;;20.20;47.60;;;;;;349511;28;1110;-60
2023/10/12 01:05:34;;;;;;;9.00;6.85;;;20.20;47.60;;;;;;349544;28;1186;-60
2023/10/12 01:05:57;;;;;;;11.35;7.35;;;20.20;47.60;;;;;;349497;28;1114;-59
2023/10/12 01:06:40;;;;;;;12.15;6.82;;;20.30;47.60;;;;;;349530;28;1070;-60
2023/10/12 01:06:51;;;;;;;13.13;6.97;;;20.30;47.60;;;;;;349562;28;1024;-60
2023/10/12 01:07:06;;;;;;;12.68;7.10;;;20.20;47.70;;;;;;349631;28;972;-60
2023/10/12 01:07:20;;;;;;;13.65;7.25;;;20.30;47.70;;;;;;349565;28;1062;-60
2023/10/12 01:07:36;;;;;;;12.82;7.28;;;20.20;47.70;;;;;;349584;28;1330;-60
2023/10/12 01:07:47;;;;;;;11.25;6.97;;;20.20;47.70;;;;;;349523;28;952;-60
2023/10/12 01:08:00;;;;;;;10.82;7.00;;;20.30;47.70;;;;;;349659;28;873;-59
2023/10/12 01:08:18;;;;;;;11.60;6.80;;;20.20;47.70;;;;;;349533;28;1210;-59
2023/10/12 01:08:30;;;;;;;12.05;7.22;;;20.20;47.70;;;;;;349591;28;1083;-59
2023/10/12 01:08:43;;;;;;;10.57;7.38;;;20.20;47.70;;;;;;349656;28;899;-60
2023/10/12 01:08:59;;;;;;;11.73;7.13;;;20.20;47.70;;;;;;349526;28;996;-61
2023/10/12 01:09:20;;;;;;;13.27;7.05;;;20.20;47.80;;;;;;349615;28;1165;-59
2023/10/12 01:09:39;;;;;;;13.07;7.35;;;20.20;47.80;;;;;;349548;28;1532;-60
2023/10/12 01:09:54;;;;;;;11.32;7.43;;;20.20;47.80;;;;;;349478;28;972;-59
2023/10/12 01:10:10;;;;;;;9.68;7.35;;;20.20;47.80;;;;;;349538;28;1352;-59
2023/10/12 01:10:28;;;;;;;11.40;6.97;;;20.20;47.80;;;;;;349600;28;1997;-60
2023/10/12 01:10:41;;;;;;;12.65;7.03;;;20.20;47.90;;;;;;349577;28;1119;-59
2023/10/12 01:10:57;;;;;;;10.93;6.90;;;20.20;47.90;;;;;;349584;28;1017;-60
2023/10/12 01:11:34;;;;;;;10.10;7.15;;;20.20;47.90;;;;;;349531;28;1007;-60
2023/10/12 01:11:58;;;;;;;10.85;7.30;;;20.20;47.90;;;;;;349633;28;881;-61
2023/10/12 01:12:14;;;;;;;12.52;7.70;;;20.20;47.90;;;;;;349600;28;980;-60
2023/10/12 01:12:30;;;;;;;13.30;7.40;;;20.20;48.00;;;;;;349626;28;1027;-60
2023/10/12 01:12:41;;;;;;;13.43;7.03;;;20.20;48.00;;;;;;349547;28;1138;-61
2023/10/12 01:12:51;;;;;;;11.30;6.97;;;20.20;48.00;;;;;;349577;28;1027;-59
2023/10/12 01:13:03;;;;;;;9.38;7.15;;;20.20;48.00;;;;;;349561;28;1187;-60
2023/10/12 01:13:15;;;;;;;11.88;7.75;;;20.20;47.90;;;;;;349671;28;1035;-60
2023/10/12 01:13:32;;;;;;;14.07;8.23;;;20.20;48.00;;;;;;349568;28;1103;-60
2023/10/12 01:13:44;;;;;;;13.18;7.53;;;20.20;48.00;;;;;;349630;28;916;-60
2023/10/12 01:14:09;;;;;;;9.65;7.13;;;20.20;48.00;;;;;;349620;28;825;-61
2023/10/12 01:14:26;;;;;;;8.70;7.07;;;20.20;48.10;;;;;;349536;28;1982;-60
2023/10/12 01:14:39;;;;;;;9.50;7.10;;;20.20;48.10;;;;;;349615;28;1035;-60
2023/10/12 01:14:54;;;;;;;9.95;7.30;;;20.20;48.10;;;;;;349606;28;1142;-60
2023/10/12 01:15:10;;;;;;;10.52;7.32;;;20.20;48.10;;;;;;349596;28;1007;-60
2023/10/12 01:15:26;;;;;;;10.82;7.05;;;20.20;48.10;;;;;;349558;28;1669;-59
2023/10/12 01:15:40;;;;;;;9.93;6.93;;;20.20;48.20;;;;;;349568;28;1043;-61
2023/10/12 01:15:51;;;;;;;9.65;6.97;;;20.20;48.10;;;;;;349571;28;1035;-61
2023/10/12 01:16:15;;;;;;;9.80;6.80;;;20.20;48.10;;;;;;349624;28;1455;-60
2023/10/12 01:16:42;;;;;;;12.10;7.20;;;20.20;48.10;;;;;;349632;28;1058;-59
2023/10/12 01:16:59;;;;;;;10.15;7.63;;;20.20;48.10;;;;;;349597;28;1132;-60
2023/10/12 01:17:17;;;;;;;10.65;7.45;;;20.20;48.10;;;;;;349523;28;1123;-60
2023/10/12 01:17:34;;;;;;;12.32;7.78;;;20.20;48.00;;;;;;349538;28;1067;-60
2023/10/12 01:17:51;;;;;;;12.27;7.70;;;20.20;48.00;;;;;;349590;28;1055;-59
2023/10/12 01:18:03;;;;;;;12.05;7.40;;;20.20;47.90;;;;;;349585;28;856;-61
2023/10/12 01:18:15;;;;;;;11.76;7.22;;;20.20;48.00;;;;;;349671;28;1060;-61
2023/10/12 01:18:28;;;;;;;12.30;7.10;;;20.20;48.00;;;;;;349622;28;1145;-60
2023/10/12 01:18:43;;;;;;;11.95;7.28;;;20.20;48.00;;;;;;349630;28;923;-59
2023/10/12 01:19:05;;;;;;;10.57;7.25;;;20.20;48.00;;;;;;349589;28;996;-59
2023/10/12 01:19:22;;;;;;;12.70;7.43;;;20.20;48.00;;;;;;349538;28;1134;-60
2023/10/12 01:19:44;;;;;;;12.05;7.18;;;20.20;48.00;;;;;;349617;28;865;-60